createdAt,value
2023-02-09T00:01:15.726Z,98344.88
2023-02-09T00:03:43.422Z,98340.69
2023-02-09T00:06:13.203Z,98338.09
2023-02-09T00:08:40.068Z,98339.94
2023-02-09T00:11:21.747Z,98338.19
2023-02-09T00:13:48.438Z,98334.72
2023-02-09T00:18:56.193Z,98333.13
2023-02-09T00:21:22.839Z,98334.00
2023-02-09T00:23:49.443Z,98341.00
2023-02-09T00:26:16.361Z,98335.84
2023-02-09T00:29:36.355Z,98338.56
2023-02-09T00:32:03.077Z,98330.81
2023-02-09T00:34:29.778Z,98329.09
2023-02-09T00:36:56.406Z,98332.56
2023-02-09T00:39:23.031Z,98330.00
2023-02-09T00:42:07.808Z,98331.78
2023-02-09T00:44:35.780Z,98322.28
2023-02-09T00:47:30.329Z,98317.09
2023-02-09T00:49:56.939Z,98316.34
2023-02-09T00:52:23.632Z,98315.59
2023-02-09T00:54:50.305Z,98311.31
2023-02-09T00:57:16.953Z,98317.44
2023-02-09T00:59:43.661Z,98309.59
2023-02-09T01:02:10.420Z,98313.09
2023-02-09T01:04:38.079Z,98301.84
2023-02-09T01:07:04.768Z,98302.75
2023-02-09T01:09:31.411Z,98308.91
2023-02-09T01:12:07.592Z,98312.38
2023-02-09T01:14:34.225Z,98304.63
2023-02-09T01:17:00.915Z,98300.34
2023-02-09T01:19:27.567Z,98295.19
2023-02-09T01:21:54.217Z,98297.00
2023-02-09T01:24:20.845Z,98285.00
2023-02-09T01:26:47.469Z,98293.81
2023-02-09T01:29:16.076Z,98287.81
2023-02-09T01:34:22.487Z,98286.16
2023-02-09T01:40:39.665Z,98286.28
2023-02-09T01:43:06.310Z,98272.53
2023-02-09T01:45:48.671Z,98278.69
2023-02-09T01:48:17.073Z,98277.84
2023-02-09T01:50:47.456Z,98277.00
2023-02-09T01:53:14.310Z,98277.06
2023-02-09T01:55:46.740Z,98265.84
2023-02-09T01:58:17.499Z,98268.50
2023-02-09T02:00:45.018Z,98267.72
2023-02-09T02:03:16.806Z,98262.59
2023-02-09T02:05:47.338Z,98261.75
2023-02-09T02:08:25.690Z,98259.19
2023-02-09T02:10:53.338Z,98248.91
2023-02-09T02:13:20.446Z,98253.25
2023-02-09T02:16:25.407Z,98243.72
2023-02-09T02:19:16.502Z,98255.00
2023-02-09T02:22:28.348Z,98242.88
2023-02-09T02:25:19.220Z,98244.69
2023-02-09T02:28:01.107Z,98238.66
2023-02-09T02:30:44.134Z,98227.47
2023-02-09T02:33:31.245Z,98236.16
2023-02-09T02:37:31.899Z,98237.09
2023-02-09T02:41:21.972Z,98236.25
2023-02-09T02:44:09.752Z,98216.41
2023-02-09T02:46:44.914Z,98224.19
2023-02-09T02:49:24.802Z,98216.44
2023-02-09T02:51:56.786Z,98215.56
2023-02-09T02:54:32.567Z,98209.56
2023-02-09T03:00:06.783Z,98203.56
2023-02-09T03:02:56.625Z,98200.91
2023-02-09T03:05:25.014Z,98203.69
2023-02-09T03:07:52.124Z,98211.53
2023-02-09T03:10:35.001Z,98196.88
2023-02-09T03:13:20.366Z,98200.38
2023-02-09T03:15:59.413Z,98197.03
2023-02-09T03:18:35.570Z,98196.19
2023-02-09T03:21:14.936Z,98197.09
2023-02-09T03:23:59.612Z,98197.94
2023-02-09T03:26:39.943Z,98191.09
2023-02-09T03:29:08.776Z,98185.06
2023-02-09T03:31:37.579Z,98181.66
2023-02-09T03:34:06.174Z,98194.63
2023-02-09T03:36:38.006Z,98188.63
2023-02-09T03:39:05.488Z,98186.88
2023-02-09T03:41:32.193Z,98188.72
2023-02-09T03:44:17.714Z,98182.72
2023-02-09T03:46:44.547Z,98187.91
2023-02-09T03:49:14.984Z,98184.53
2023-02-09T03:51:42.713Z,98184.53
2023-02-09T03:54:09.456Z,98185.41
2023-02-09T03:56:37.733Z,98183.69
2023-02-09T03:59:07.094Z,98187.19
2023-02-09T04:01:33.778Z,98178.59
2023-02-09T04:04:02.166Z,98187.31
2023-02-09T04:06:31.226Z,98189.97
2023-02-09T04:08:59.804Z,98185.66
2023-02-09T04:11:26.987Z,98193.47
2023-02-09T04:13:53.698Z,98190.91
2023-02-09T04:16:20.492Z,98188.28
2023-02-09T04:18:47.295Z,98189.13
2023-02-09T04:21:14.094Z,98183.94
2023-02-09T04:23:40.904Z,98177.06
2023-02-09T04:26:07.704Z,98190.00
2023-02-09T04:28:34.320Z,98180.53
2023-02-09T04:31:01.055Z,98171.94
2023-02-09T04:33:27.793Z,98179.69
2023-02-09T04:35:54.395Z,98181.44
2023-02-09T04:38:21.952Z,98176.25
2023-02-09T04:40:50.266Z,98178.91
2023-02-09T04:43:17.793Z,98177.22
2023-02-09T04:45:44.713Z,98177.22
2023-02-09T04:48:14.559Z,98176.38
2023-02-09T04:50:41.274Z,98179.00
2023-02-09T04:53:08.215Z,98184.22
2023-02-09T04:55:41.401Z,98181.69
2023-02-09T04:58:29.741Z,98182.56
2023-02-09T05:00:57.305Z,98183.44
2023-02-09T05:03:26.040Z,98188.63
2023-02-09T05:06:01.413Z,98192.13
2023-02-09T05:08:28.730Z,98192.06
2023-02-09T05:13:34.583Z,98194.69
2023-02-09T05:16:05.683Z,98190.47
2023-02-09T05:18:32.423Z,98201.75
2023-02-09T05:20:59.029Z,98209.53
2023-02-09T05:23:25.648Z,98200.03
2023-02-09T05:25:52.379Z,98210.41
2023-02-09T05:28:19.077Z,98208.75
2023-02-09T05:30:48.320Z,98203.53
2023-02-09T05:33:15.193Z,98210.44
2023-02-09T05:35:41.839Z,98210.44
2023-02-09T05:38:08.509Z,98213.03
2023-02-09T05:40:35.177Z,98214.78
2023-02-09T05:43:03.468Z,98229.41
2023-02-09T05:48:08.132Z,98232.06
2023-02-09T05:50:36.094Z,98225.19
2023-02-09T05:53:02.805Z,98234.69
2023-02-09T05:55:29.515Z,98228.66
2023-02-09T05:57:56.205Z,98227.81
2023-02-09T06:00:25.164Z,98229.50
2023-02-09T06:02:52.100Z,98221.72
2023-02-09T06:05:21.056Z,98221.75
2023-02-09T06:07:48.862Z,98220.03
2023-02-09T06:10:16.736Z,98224.34
2023-02-09T06:12:43.775Z,98225.22
2023-02-09T06:15:10.976Z,98232.09
2023-02-09T06:20:23.361Z,98232.09
2023-02-09T06:25:27.857Z,98232.94
2023-02-09T06:27:54.730Z,98244.16
2023-02-09T06:30:21.542Z,98239.84
2023-02-09T06:32:48.181Z,98246.72
2023-02-09T06:35:14.924Z,98243.28
2023-02-09T06:37:41.569Z,98243.28
2023-02-09T06:40:08.547Z,98246.72
2023-02-09T06:42:44.489Z,98243.28
2023-02-09T06:47:22.683Z,98253.59
2023-02-09T06:49:49.328Z,98245.81
2023-02-09T06:52:15.983Z,98250.13
2023-02-09T06:54:44.887Z,98244.06
2023-02-09T06:57:11.764Z,98241.47
2023-02-09T06:59:38.393Z,98248.41
2023-02-09T07:02:05.060Z,98245.81
2023-02-09T07:04:31.740Z,98246.66
2023-02-09T07:06:58.364Z,98244.00
2023-02-09T07:09:24.978Z,98241.09
2023-02-09T07:11:51.579Z,98246.91
2023-02-09T07:14:18.215Z,98238.03
2023-02-09T07:16:44.864Z,98230.50
2023-02-09T07:19:11.537Z,98229.63
2023-02-09T07:21:38.177Z,98234.06
2023-02-09T07:24:05.172Z,98227.00
2023-02-09T07:26:31.812Z,98229.44
2023-02-09T07:28:58.474Z,98232.06
2023-02-09T07:31:27.255Z,98236.25
2023-02-09T07:33:54.276Z,98231.91
2023-02-09T07:36:20.890Z,98231.59
2023-02-09T07:38:47.770Z,98227.72
2023-02-09T07:41:20.699Z,98232.09
2023-02-09T07:43:48.232Z,98230.50
2023-02-09T07:46:16.924Z,98231.31
2023-02-09T07:48:43.583Z,98226.81
2023-02-09T07:51:19.878Z,98228.19
2023-02-09T07:53:47.857Z,98227.06
2023-02-09T07:56:14.506Z,98222.84
2023-02-09T07:58:41.169Z,98224.59
2023-02-09T08:03:50.910Z,98219.16
2023-02-09T08:06:40.675Z,98218.53
2023-02-09T08:09:09.351Z,98212.44
2023-02-09T08:11:55.741Z,98203.22
2023-02-09T08:14:27.105Z,98198.34
2023-02-09T08:17:17.055Z,98190.53
2023-02-09T08:19:45.445Z,98203.09
2023-02-09T08:22:12.407Z,98200.19
2023-02-09T08:27:17.450Z,98196.53
2023-02-09T08:29:44.428Z,98205.34
2023-02-09T08:32:11.189Z,98201.84
2023-02-09T08:34:37.919Z,98198.91
2023-02-09T08:37:04.577Z,98198.66
2023-02-09T08:39:31.396Z,98206.34
2023-02-09T08:41:58.062Z,98196.59
2023-02-09T08:44:24.762Z,98200.66
2023-02-09T08:46:51.852Z,98199.09
2023-02-09T08:49:18.597Z,98195.28
2023-02-09T08:51:58.071Z,98195.63
2023-02-09T08:54:25.509Z,98191.53
2023-02-09T08:56:52.153Z,98199.03
2023-02-09T08:59:20.144Z,98198.16
2023-02-09T09:01:46.911Z,98196.53
2023-02-09T09:04:13.692Z,98205.66
2023-02-09T09:06:40.425Z,98197.19
2023-02-09T09:09:07.153Z,98195.66
2023-02-09T09:11:33.866Z,98193.69
2023-02-09T09:14:00.559Z,98189.66
2023-02-09T09:16:27.314Z,98197.66
2023-02-09T09:18:54.064Z,98195.13
2023-02-09T09:21:20.876Z,98188.00
2023-02-09T09:23:50.746Z,98191.56
2023-02-09T09:26:18.127Z,98188.69
2023-02-09T09:28:45.463Z,98193.47
2023-02-09T09:33:55.185Z,98183.00
2023-02-09T09:36:21.883Z,98184.78
2023-02-09T09:38:48.624Z,98187.44
2023-02-09T09:41:26.476Z,98190.47
2023-02-09T09:43:54.657Z,98186.56
2023-02-09T09:46:31.005Z,98190.91
2023-02-09T09:48:59.293Z,98181.91
2023-02-09T09:51:48.196Z,98180.44
2023-02-09T09:54:19.860Z,98181.72
2023-02-09T09:56:47.387Z,98182.16
2023-02-09T09:59:21.789Z,98170.41
2023-02-09T10:03:29.171Z,98162.03
2023-02-09T10:08:46.240Z,98156.56
2023-02-09T10:11:19.261Z,98154.19
2023-02-09T10:13:54.067Z,98149.97
2023-02-09T10:16:26.906Z,98148.53
2023-02-09T10:18:56.697Z,98139.25
2023-02-09T10:21:25.590Z,98135.56
2023-02-09T10:24:01.650Z,98142.19
2023-02-09T10:26:31.918Z,98142.16
2023-02-09T10:29:07.276Z,98134.66
2023-02-09T10:31:40.295Z,98129.03
2023-02-09T10:34:41.003Z,98127.34
2023-02-09T10:37:34.758Z,98116.13
2023-02-09T10:40:27.758Z,98117.47
2023-02-09T10:43:07.199Z,98111.28
2023-02-09T10:48:19.040Z,98094.28
2023-02-09T10:50:48.667Z,98083.91
2023-02-09T10:53:31.071Z,98075.88
2023-02-09T10:56:17.736Z,98082.50
2023-02-09T10:59:01.139Z,98070.13
2023-02-09T11:01:34.940Z,98066.50
2023-02-09T11:04:04.561Z,98061.38
2023-02-09T11:06:44.012Z,98053.09
2023-02-09T11:09:18.413Z,98045.38
2023-02-09T11:11:46.299Z,98047.25
2023-02-09T11:14:20.421Z,98038.00
2023-02-09T11:17:11.454Z,98029.78
2023-02-09T11:22:38.691Z,98031.78
2023-02-09T11:25:15.282Z,98028.88
2023-02-09T11:28:19.432Z,98032.69
2023-02-09T11:31:01.351Z,98032.28
2023-02-09T11:34:07.104Z,98024.06
2023-02-09T11:37:29.681Z,98012.41
2023-02-09T11:40:10.745Z,98011.16
2023-02-09T11:42:46.323Z,98014.72
2023-02-09T11:45:38.971Z,98010.09
2023-02-09T11:48:14.281Z,98001.19
2023-02-09T11:50:57.292Z,98002.81
2023-02-09T11:53:45.438Z,97996.69
2023-02-09T11:56:14.635Z,97997.56
2023-02-09T11:59:06.125Z,97997.16
2023-02-09T12:01:53.812Z,97993.88
2023-02-09T12:04:47.974Z,97994.97
2023-02-09T12:07:43.979Z,97988.38
2023-02-09T12:10:22.540Z,97985.66
2023-02-09T12:12:57.899Z,97973.84
2023-02-09T12:15:36.360Z,97973.91
2023-02-09T12:18:16.526Z,97974.78
2023-02-09T12:20:57.902Z,97971.53
2023-02-09T12:23:34.953Z,97959.00
2023-02-09T12:26:16.539Z,97964.84
2023-02-09T12:29:25.238Z,97952.06
2023-02-09T12:32:04.038Z,97949.38
2023-02-09T12:34:30.766Z,97949.94
2023-02-09T12:37:30.365Z,97948.22
2023-02-09T12:40:12.167Z,97944.72
2023-02-09T12:42:43.693Z,97944.84
2023-02-09T12:45:36.694Z,97940.38
2023-02-09T12:48:09.479Z,97942.28
2023-02-09T12:50:42.268Z,97948.44
2023-02-09T12:53:20.968Z,97938.84
2023-02-09T12:56:06.416Z,97937.09
2023-02-09T12:58:46.285Z,97935.47
2023-02-09T13:01:14.646Z,97935.66
2023-02-09T13:03:49.315Z,97936.06
2023-02-09T13:06:28.477Z,97933.38
2023-02-09T13:08:59.697Z,97930.28
2023-02-09T13:11:32.724Z,97929.28
2023-02-09T13:14:07.504Z,97919.41
2023-02-09T13:16:43.236Z,97919.91
2023-02-09T13:19:09.903Z,97912.47
2023-02-09T13:22:13.704Z,97913.94
2023-02-09T13:25:09.224Z,97910.22
2023-02-09T13:27:45.059Z,97906.66
2023-02-09T13:30:31.383Z,97909.97
2023-02-09T13:33:16.771Z,97904.34
2023-02-09T13:36:25.510Z,97902.63
2023-02-09T13:38:52.758Z,97906.88
2023-02-09T13:41:38.679Z,97909.88
2023-02-09T13:44:25.153Z,97905.03
2023-02-09T13:49:36.394Z,97907.19
2023-02-09T13:52:10.075Z,97895.00
2023-02-09T13:54:37.122Z,97898.81
2023-02-09T13:57:09.507Z,97909.53
2023-02-09T13:59:37.036Z,97899.72
2023-02-09T14:02:03.682Z,97896.84
2023-02-09T14:04:33.715Z,97886.44
2023-02-09T14:07:01.701Z,97895.13
2023-02-09T14:09:41.096Z,97899.94
2023-02-09T14:12:15.321Z,97898.72
2023-02-09T14:15:05.911Z,97895.03
2023-02-09T14:17:38.879Z,97906.63
2023-02-09T14:20:20.887Z,97899.44
2023-02-09T14:22:56.990Z,97901.25
2023-02-09T14:25:25.895Z,97900.75
2023-02-09T14:30:50.522Z,97901.38
2023-02-09T14:33:24.981Z,97906.72
2023-02-09T14:35:59.245Z,97903.59
2023-02-09T14:38:34.513Z,97900.28
2023-02-09T14:41:31.137Z,97894.44
2023-02-09T14:44:20.345Z,97897.44
2023-02-09T14:46:49.382Z,97902.66
2023-02-09T14:49:16.281Z,97903.22
2023-02-09T14:51:43.873Z,97901.09
2023-02-09T14:54:21.455Z,97894.41
2023-02-09T14:56:48.087Z,97902.06
2023-02-09T14:59:17.585Z,97902.19
2023-02-09T15:01:47.412Z,97898.44
2023-02-09T15:04:14.141Z,97903.78
2023-02-09T15:06:43.817Z,97896.25
2023-02-09T15:09:30.815Z,97892.94
2023-02-09T15:12:06.839Z,97893.13
2023-02-09T15:14:42.617Z,97900.03
2023-02-09T15:17:23.551Z,97898.28
2023-02-09T15:22:07.055Z,97900.03
2023-02-09T15:24:36.242Z,97895.09
2023-02-09T15:27:03.001Z,97894.53
2023-02-09T15:29:30.635Z,97888.72
2023-02-09T15:31:57.242Z,97893.31
2023-02-09T15:34:23.911Z,97888.31
2023-02-09T15:36:50.666Z,97892.22
2023-02-09T15:39:22.281Z,97900.25
2023-02-09T15:42:07.285Z,97891.94
2023-02-09T15:44:52.335Z,97904.41
2023-02-09T15:47:37.359Z,97898.66
2023-02-09T15:50:04.049Z,97907.78
2023-02-09T15:52:30.904Z,97915.56
2023-02-09T15:54:57.651Z,97916.56
2023-02-09T15:57:25.677Z,97914.91
2023-02-09T15:59:52.336Z,97911.41
2023-02-09T16:02:19.551Z,97914.09
2023-02-09T16:04:46.501Z,97910.53
2023-02-09T16:09:53.871Z,97919.81
2023-02-09T16:12:20.540Z,97919.19
2023-02-09T16:14:47.407Z,97923.75
2023-02-09T16:17:14.052Z,97924.69
2023-02-09T16:19:40.688Z,97928.41
2023-02-09T16:22:07.628Z,97936.34
2023-02-09T16:24:46.772Z,97936.63
2023-02-09T16:28:25.163Z,97939.47
2023-02-09T16:30:56.601Z,97942.09
2023-02-09T16:33:25.375Z,97939.78
2023-02-09T16:36:01.575Z,97937.34
2023-02-09T16:39:26.248Z,97945.25
2023-02-09T16:41:53.686Z,97943.78
2023-02-09T16:44:21.813Z,97944.81
2023-02-09T16:46:53.725Z,97945.63
2023-02-09T16:49:36.791Z,97952.47
2023-02-09T16:52:07.766Z,97950.00
2023-02-09T16:54:40.917Z,97955.31
2023-02-09T16:57:11.659Z,97958.06
2023-02-09T16:59:38.261Z,97960.75
2023-02-09T17:02:16.624Z,97962.38
2023-02-09T17:05:31.847Z,97965.19
2023-02-09T17:10:37.302Z,97976.72
2023-02-09T17:13:04.802Z,97978.59
2023-02-09T17:15:39.495Z,97982.09
2023-02-09T17:18:09.218Z,97979.53
2023-02-09T17:20:40.939Z,97971.72
2023-02-09T17:23:10.106Z,97973.63
2023-02-09T17:26:02.177Z,97970.31
2023-02-09T17:29:33.898Z,97979.09
2023-02-09T17:32:02.154Z,97982.56
2023-02-09T17:34:29.091Z,97981.84
2023-02-09T17:36:57.041Z,97977.66
2023-02-09T17:39:24.167Z,97976.91
2023-02-09T17:41:50.938Z,97975.22
2023-02-09T17:46:59.347Z,97986.59
2023-02-09T17:52:05.644Z,97981.44
2023-02-09T17:54:33.983Z,97976.28
2023-02-09T17:57:00.634Z,97976.41
2023-02-09T17:59:27.347Z,97985.19
2023-02-09T18:04:28.787Z,97990.47
2023-02-09T18:06:57.648Z,97989.81
2023-02-09T18:09:24.529Z,97988.06
2023-02-09T18:11:51.117Z,97987.13
2023-02-09T18:14:19.582Z,97986.34
2023-02-09T18:16:47.795Z,97990.69
2023-02-09T18:19:16.087Z,97993.41
2023-02-09T18:21:59.531Z,97994.28
2023-02-09T18:24:29.430Z,97992.31
2023-02-09T18:26:56.786Z,97996.84
2023-02-09T18:29:31.726Z,98002.22
2023-02-09T18:32:00.054Z,97998.81
2023-02-09T18:34:27.655Z,97999.66
2023-02-09T18:36:54.510Z,97994.63
2023-02-09T18:39:21.516Z,97998.22
2023-02-09T18:41:54.296Z,98001.66
2023-02-09T18:44:24.592Z,97997.38
2023-02-09T18:46:51.534Z,98000.00
2023-02-09T18:49:18.176Z,97993.16
2023-02-09T18:51:44.778Z,98002.81
2023-02-09T18:54:11.533Z,98000.19
2023-02-09T18:56:38.303Z,97995.97
2023-02-09T18:59:05.224Z,98003.00
2023-02-09T19:01:31.927Z,98002.88
2023-02-09T19:03:58.685Z,98005.59
2023-02-09T19:06:25.509Z,98004.75
2023-02-09T19:08:52.434Z,98010.84
2023-02-09T19:11:21.667Z,98009.06
2023-02-09T19:14:08.150Z,98007.47
2023-02-09T19:16:36.605Z,98013.66
2023-02-09T19:19:03.746Z,98007.56
2023-02-09T19:21:31.895Z,98002.41
2023-02-09T19:23:58.790Z,98004.19
2023-02-09T19:26:25.461Z,98002.53
2023-02-09T19:30:32.842Z,98002.59
2023-02-09T19:33:00.215Z,98011.28
2023-02-09T19:38:07.688Z,98012.22
2023-02-09T19:40:36.668Z,98006.16
2023-02-09T19:46:35.219Z,98006.44
2023-02-09T19:49:02.284Z,98004.78
2023-02-09T19:51:28.939Z,98008.19
2023-02-09T19:53:55.723Z,98006.53
2023-02-09T19:56:23.597Z,98003.94
2023-02-09T19:58:51.295Z,98010.06
2023-02-09T20:01:18.611Z,98009.31
2023-02-09T20:03:45.357Z,98017.22
2023-02-09T20:06:14.323Z,98014.69
2023-02-09T20:08:41.235Z,98006.91
2023-02-09T20:11:10.410Z,98008.63
2023-02-09T20:13:37.802Z,98014.00
2023-02-09T20:16:13.580Z,98011.34
2023-02-09T20:18:40.837Z,98007.06
2023-02-09T20:21:09.078Z,98007.06
2023-02-09T20:23:36.762Z,98003.66
2023-02-09T20:26:18.725Z,98002.84
2023-02-09T20:28:45.459Z,98007.16
2023-02-09T20:31:13.373Z,98012.34
2023-02-09T20:33:41.923Z,98007.22
2023-02-09T20:36:10.070Z,98006.38
2023-02-09T20:38:37.773Z,98009.09
2023-02-09T20:41:09.946Z,98012.50
2023-02-09T20:43:56.304Z,98012.53
2023-02-09T20:46:44.052Z,98013.47
2023-02-09T20:49:13.549Z,98015.25
2023-02-09T20:51:40.677Z,98009.16
2023-02-09T20:54:07.528Z,98020.50
2023-02-09T20:56:35.808Z,98012.72
2023-02-09T20:59:03.599Z,98011.91
2023-02-09T21:01:30.349Z,98014.53
2023-02-09T21:03:58.964Z,98005.06
2023-02-09T21:06:26.137Z,97999.78
2023-02-09T21:08:53.598Z,97993.72
2023-02-09T21:11:20.359Z,97999.94
2023-02-09T21:13:47.116Z,97994.81
2023-02-09T21:16:20.143Z,98005.25
2023-02-09T21:18:46.823Z,97996.63
2023-02-09T21:21:16.744Z,97992.41
2023-02-09T21:23:44.495Z,98005.41
2023-02-09T21:26:17.336Z,98005.47
2023-02-09T21:28:44.088Z,98000.31
2023-02-09T21:31:16.570Z,98009.84
2023-02-09T21:33:43.856Z,98007.38
2023-02-09T21:36:10.595Z,98001.31
2023-02-09T21:38:41.826Z,97996.13
2023-02-09T21:41:33.495Z,97990.19
2023-02-09T21:44:00.479Z,97994.38
2023-02-09T21:46:27.900Z,97991.84
2023-02-09T21:48:55.030Z,97995.38
2023-02-09T21:51:22.381Z,97997.06
2023-02-09T21:53:49.260Z,97992.03
2023-02-09T21:56:16.318Z,97996.41
2023-02-09T21:58:43.561Z,98002.47
2023-02-09T22:01:13.662Z,98006.88
2023-02-09T22:03:42.668Z,97989.63
2023-02-09T22:06:10.309Z,98002.59
2023-02-09T22:08:37.178Z,97986.28
2023-02-09T22:11:06.209Z,97992.41
2023-02-09T22:16:25.531Z,97998.53
2023-02-09T22:18:52.410Z,98007.19
2023-02-09T22:23:58.419Z,98015.91
2023-02-09T22:26:25.081Z,98021.09
2023-02-09T22:28:51.768Z,98017.66
2023-02-09T22:31:20.199Z,98008.94
2023-02-09T22:33:46.968Z,98005.50
2023-02-09T22:36:16.611Z,98006.34
2023-02-09T22:38:46.842Z,98009.84
2023-02-09T22:41:22.271Z,98008.19
2023-02-09T22:44:00.755Z,98013.38
2023-02-09T22:46:30.364Z,98008.19
2023-02-09T22:48:59.307Z,98005.59
2023-02-09T22:51:30.980Z,98003.03
2023-02-09T22:53:58.630Z,98002.22
2023-02-09T22:56:26.255Z,97999.59
2023-02-09T22:58:54.241Z,97994.28
2023-02-09T23:01:21.295Z,97991.66
2023-02-09T23:03:48.044Z,97994.34
2023-02-09T23:09:02.219Z,97996.25
2023-02-09T23:11:30.622Z,97995.50
2023-02-09T23:14:14.086Z,97993.84
2023-02-09T23:16:43.595Z,97997.31
2023-02-09T23:19:13.493Z,97988.66
2023-02-09T23:21:42.947Z,97995.56
2023-02-09T23:24:10.398Z,97999.88
2023-02-09T23:26:37.483Z,97996.41
2023-02-09T23:29:07.111Z,97988.59
2023-02-09T23:31:33.997Z,97986.81
2023-02-09T23:34:00.689Z,97985.13
2023-02-09T23:36:29.584Z,97979.97
2023-02-09T23:38:59.520Z,97983.47
2023-02-09T23:41:27.227Z,97976.56
2023-02-09T23:43:54.726Z,97976.53
2023-02-09T23:47:21.206Z,97973.16
2023-02-09T23:49:49.237Z,97974.00
2023-02-09T23:52:15.866Z,97967.97
2023-02-09T23:54:42.648Z,97973.13
2023-02-09T23:57:09.296Z,97974.03
2023-02-09T23:59:35.901Z,97972.38
